Terminal Aerodrome Forecast
Issued by NWS King Salmon, AK

Home | Current Version | Previous Version | Text Only | Print | Product List | Glossary On
Versions: 1 2 3 4 5 6 7 8 9 10 11 12 13 14 15 16 17 18
000
FTAK31 PANC 121723
TAFAKN
TAF
PAKN 121723Z 1218/1318 09018G26KT P6SM VCSH BKN120
     FM122000 12018G27KT P6SM VCSH BKN060 OVC100 WS020/15048KT
     FM130600 11013G21KT P6SM -SHRA BKN050
     FM131600 07008KT P6SM -RA OVC025=

USA.gov is the U.S. government's official web portal to all federal, state and local government web resources and services.